createdAt,value
2023-05-14T04:00:47.229Z,95.78
2023-05-14T04:01:48.189Z,95.37
2023-05-14T04:02:48.281Z,94.55
2023-05-14T04:03:48.335Z,94.55
2023-05-14T04:04:48.240Z,95.67
2023-05-14T04:05:48.140Z,95.98
2023-05-14T04:06:48.156Z,97.11
2023-05-14T04:07:48.151Z,94.75
2023-05-14T04:08:48.146Z,94.24
2023-05-14T04:09:48.116Z,94.24
2023-05-14T04:10:48.102Z,93.84
2023-05-14T04:11:48.123Z,94.34
2023-05-14T04:12:48.102Z,94.55
2023-05-14T04:13:48.058Z,94.85
2023-05-14T04:14:48.064Z,94.14
2023-05-14T04:15:48.071Z,94.75
2023-05-14T04:16:48.101Z,94.45
2023-05-14T04:17:48.056Z,95.17
2023-05-14T04:18:48.104Z,95.17
2023-05-14T04:19:48.028Z,95.98
2023-05-14T04:20:48.095Z,95.88
2023-05-14T04:21:47.987Z,95.92
2023-05-14T04:22:47.998Z,95.92
2023-05-14T04:23:47.956Z,95.82
2023-05-14T04:24:47.955Z,97.05
2023-05-14T04:25:47.931Z,97.77
2023-05-14T04:26:47.945Z,97.25
2023-05-14T04:27:47.935Z,98.28
2023-05-14T04:28:47.936Z,97.50
2023-05-14T04:29:47.881Z,97.87
2023-05-14T04:30:47.927Z,97.87
2023-05-14T04:31:47.924Z,96.84
2023-05-14T04:32:47.984Z,96.95
2023-05-14T04:33:47.876Z,96.74
2023-05-14T04:34:47.846Z,96.74
2023-05-14T04:35:47.846Z,95.98
2023-05-14T04:36:47.837Z,95.67
2023-05-14T04:37:47.816Z,96.49
2023-05-14T04:38:47.828Z,95.88
2023-05-14T04:39:47.829Z,96.39
2023-05-14T04:40:47.799Z,96.08
2023-05-14T04:41:47.795Z,95.98
2023-05-14T04:42:47.821Z,97.00
2023-05-14T04:43:47.751Z,96.91
2023-05-14T04:44:47.782Z,96.19
2023-05-14T04:45:47.773Z,95.78
2023-05-14T04:46:47.726Z,96.08
2023-05-14T04:47:47.784Z,95.88
2023-05-14T04:48:47.711Z,95.78
2023-05-14T04:49:47.785Z,95.02
2023-05-14T04:50:47.678Z,94.71
2023-05-14T04:51:47.669Z,94.51
2023-05-14T04:52:47.674Z,95.28
2023-05-14T04:53:47.686Z,95.07
2023-05-14T04:54:47.716Z,94.46
2023-05-14T04:55:47.620Z,94.36
2023-05-14T04:56:47.652Z,94.26
2023-05-14T04:57:47.599Z,94.46
2023-05-14T04:58:47.609Z,94.26
2023-05-14T04:59:47.583Z,94.01
2023-05-14T05:00:47.621Z,94.21
2023-05-14T05:01:47.698Z,94.82
2023-05-14T05:02:47.583Z,93.91
2023-05-14T05:03:47.642Z,93.50
2023-05-14T05:04:47.569Z,93.80
2023-05-14T05:05:47.524Z,94.21
2023-05-14T05:06:47.513Z,94.62
2023-05-14T05:07:47.488Z,94.52
2023-05-14T05:08:47.502Z,95.03
2023-05-14T05:09:47.482Z,95.44
2023-05-14T05:10:47.500Z,95.34
2023-05-14T05:11:47.461Z,95.44
2023-05-14T05:12:47.447Z,95.29
2023-05-14T05:13:47.479Z,96.11
2023-05-14T05:14:47.451Z,95.39
2023-05-14T05:15:47.422Z,95.19
2023-05-14T05:16:47.419Z,94.98
2023-05-14T05:17:47.439Z,94.98
2023-05-14T05:18:47.406Z,95.50
2023-05-14T05:19:47.367Z,97.33
2023-05-14T05:20:47.362Z,96.01
2023-05-14T05:21:47.369Z,95.39
2023-05-14T05:22:47.417Z,95.35
2023-05-14T05:23:47.346Z,95.25
2023-05-14T05:24:49.242Z,94.33
2023-05-14T05:25:47.338Z,95.41
2023-05-14T05:26:47.348Z,93.77
2023-05-14T05:27:47.327Z,92.96
2023-05-14T05:28:47.275Z,92.20
2023-05-14T05:29:47.322Z,93.43
2023-05-14T05:30:47.274Z,92.50
2023-05-14T05:31:47.343Z,92.57
2023-05-14T05:32:47.297Z,92.36
2023-05-14T05:33:47.238Z,90.79
2023-05-14T05:34:47.246Z,89.77
2023-05-14T05:35:47.269Z,89.63
2023-05-14T05:36:47.240Z,90.44
2023-05-14T05:37:47.190Z,87.59
2023-05-14T05:38:47.178Z,86.74
2023-05-14T05:39:47.170Z,86.83
2023-05-14T05:40:47.217Z,87.41
2023-05-14T05:41:47.160Z,88.12
2023-05-14T05:42:47.173Z,87.87
2023-05-14T05:43:47.141Z,87.16
2023-05-14T05:44:47.115Z,89.30
2023-05-14T05:45:47.188Z,87.37
2023-05-14T05:46:47.182Z,87.73
2023-05-14T05:47:47.142Z,86.92
2023-05-14T05:48:47.061Z,87.63
2023-05-14T05:49:47.124Z,85.86
2023-05-14T05:50:47.080Z,85.66
2023-05-14T05:51:47.040Z,85.76
2023-05-14T05:52:47.055Z,84.95
2023-05-14T05:53:47.012Z,84.70
2023-05-14T05:54:47.059Z,84.40
2023-05-14T05:55:47.019Z,83.79
2023-05-14T05:56:47.021Z,83.75
2023-05-14T05:57:46.991Z,84.77
2023-05-14T05:58:46.980Z,82.84
2023-05-14T05:59:47.027Z,82.84
2023-05-14T06:00:47.013Z,83.14
2023-05-14T06:01:46.994Z,82.23
2023-05-14T06:02:47.070Z,82.03
2023-05-14T06:03:48.496Z,82.53
2023-05-14T06:04:47.026Z,82.64
2023-05-14T06:05:47.042Z,82.84
2023-05-14T06:06:46.876Z,84.16
2023-05-14T06:07:46.893Z,83.75
2023-05-14T06:08:46.927Z,84.05
2023-05-14T06:09:46.873Z,84.87
2023-05-14T06:10:47.615Z,84.09
2023-05-14T06:11:46.858Z,84.30
2023-05-14T06:12:46.819Z,85.11
2023-05-14T06:13:46.839Z,84.50
2023-05-14T06:14:46.830Z,84.54
2023-05-14T06:15:46.818Z,85.76
2023-05-14T06:16:46.852Z,84.84
2023-05-14T06:17:46.793Z,84.95
2023-05-14T06:18:46.856Z,85.96
2023-05-14T06:19:46.738Z,86.57
2023-05-14T06:20:46.779Z,86.07
2023-05-14T06:21:46.740Z,86.16
2023-05-14T06:22:46.775Z,87.38
2023-05-14T06:23:46.699Z,86.68
2023-05-14T06:24:46.700Z,87.02
2023-05-14T06:25:47.895Z,87.02
2023-05-14T06:26:46.690Z,86.71
2023-05-14T06:27:46.686Z,87.53
2023-05-14T06:28:46.650Z,87.53
2023-05-14T06:29:46.645Z,87.02
2023-05-14T06:30:46.644Z,85.90
2023-05-14T06:31:46.654Z,87.12
2023-05-14T06:32:46.667Z,86.41
2023-05-14T06:33:46.616Z,85.86
2023-05-14T06:34:46.610Z,86.68
2023-05-14T06:35:46.591Z,85.76
2023-05-14T06:36:46.604Z,85.25
2023-05-14T06:37:46.570Z,85.25
2023-05-14T06:38:46.573Z,84.30
2023-05-14T06:39:46.594Z,84.50
2023-05-14T06:40:46.527Z,84.60
2023-05-14T06:41:46.528Z,85.11
2023-05-14T06:42:46.501Z,85.78
2023-05-14T06:43:46.489Z,86.08
2023-05-14T06:44:46.478Z,84.97
2023-05-14T06:45:46.481Z,85.27
2023-05-14T06:46:46.492Z,85.07
2023-05-14T06:47:46.522Z,85.27
2023-05-14T06:48:46.492Z,85.98
2023-05-14T06:49:46.433Z,86.19
2023-05-14T06:50:46.436Z,85.78
2023-05-14T06:51:46.447Z,85.98
2023-05-14T06:52:46.392Z,85.88
2023-05-14T06:53:46.390Z,86.08
2023-05-14T06:54:46.374Z,87.20
2023-05-14T06:55:46.417Z,85.84
2023-05-14T06:56:46.356Z,85.33
2023-05-14T06:57:46.374Z,85.44
2023-05-14T06:58:46.824Z,85.84
2023-05-14T06:59:47.016Z,86.45
2023-05-14T07:00:46.375Z,86.15
2023-05-14T07:01:46.373Z,86.45
2023-05-14T07:02:46.328Z,84.93
2023-05-14T07:03:46.381Z,85.09
2023-05-14T07:04:46.450Z,85.39
2023-05-14T07:05:46.286Z,84.48
2023-05-14T07:06:46.266Z,85.25
2023-05-14T07:07:46.274Z,83.43
2023-05-14T07:08:46.246Z,84.04
2023-05-14T07:09:46.225Z,84.04
2023-05-14T07:10:46.242Z,84.50
2023-05-14T07:11:46.215Z,85.01
2023-05-14T07:12:46.183Z,84.20
2023-05-14T07:13:46.211Z,83.65
2023-05-14T07:14:46.391Z,82.54
2023-05-14T07:15:46.454Z,81.73
2023-05-14T07:16:46.200Z,81.93
2023-05-14T07:17:46.201Z,82.64
2023-05-14T07:18:46.145Z,81.73
2023-05-14T07:19:46.149Z,82.60
2023-05-14T07:20:46.109Z,82.60
2023-05-14T07:21:46.103Z,81.85
2023-05-14T07:22:46.075Z,81.45
2023-05-14T07:23:46.090Z,79.53
2023-05-14T07:24:46.082Z,81.21
2023-05-14T07:25:46.041Z,80.00
2023-05-14T07:26:46.138Z,80.91
2023-05-14T07:27:46.079Z,80.60
2023-05-14T07:28:46.076Z,80.71
2023-05-14T07:29:46.065Z,80.87
2023-05-14T07:30:45.984Z,77.47
2023-05-14T07:31:46.029Z,78.17
2023-05-14T07:32:46.046Z,79.49
2023-05-14T07:33:46.007Z,78.88
2023-05-14T07:34:45.946Z,78.68
2023-05-14T07:35:45.966Z,77.67
2023-05-14T07:36:45.932Z,77.43
2023-05-14T07:37:45.941Z,76.42
2023-05-14T07:38:45.911Z,77.90
2023-05-14T07:39:45.898Z,76.99
2023-05-14T07:40:45.939Z,77.86
2023-05-14T07:41:45.916Z,75.64
2023-05-14T07:42:45.891Z,75.34
2023-05-14T07:43:45.903Z,74.02
2023-05-14T07:44:45.832Z,77.02
2023-05-14T07:45:45.856Z,73.42
2023-05-14T07:46:45.823Z,73.49
2023-05-14T07:47:45.941Z,73.38
2023-05-14T07:48:45.907Z,73.69
2023-05-14T07:49:45.817Z,72.54
2023-05-14T07:50:45.784Z,74.26
2023-05-14T07:51:45.785Z,76.04
2023-05-14T07:52:45.771Z,72.00
2023-05-14T07:53:45.754Z,73.42
2023-05-14T07:54:45.740Z,73.32
2023-05-14T07:55:45.740Z,74.93
2023-05-14T07:56:45.735Z,79.63
2023-05-14T07:57:45.752Z,75.20
2023-05-14T07:58:45.705Z,73.28
2023-05-14T07:59:45.722Z,73.58
2023-05-14T08:00:45.672Z,71.94
2023-05-14T08:01:45.725Z,72.34
2023-05-14T08:02:45.808Z,71.33
2023-05-14T08:03:45.715Z,73.35
2023-05-14T08:04:45.654Z,69.92
2023-05-14T08:05:45.625Z,69.42
2023-05-14T08:06:45.646Z,71.84
2023-05-14T08:07:45.657Z,70.06
2023-05-14T08:08:45.588Z,69.01
2023-05-14T08:09:45.585Z,68.61
2023-05-14T08:10:45.642Z,70.83
2023-05-14T08:11:45.567Z,70.83
2023-05-14T08:12:45.565Z,67.60
2023-05-14T08:13:45.550Z,68.21
2023-05-14T08:14:45.554Z,67.40
2023-05-14T08:15:45.532Z,66.77
2023-05-14T08:16:45.534Z,69.29
2023-05-14T08:17:45.631Z,71.06
2023-05-14T08:18:45.560Z,68.78
2023-05-14T08:19:45.502Z,68.44
2023-05-14T08:20:45.492Z,69.62
2023-05-14T08:21:45.446Z,69.12
2023-05-14T08:22:45.430Z,66.53
2023-05-14T08:23:45.435Z,67.84
2023-05-14T08:24:45.439Z,71.97
2023-05-14T08:25:45.455Z,68.55
2023-05-14T08:26:47.200Z,68.21
2023-05-14T08:27:45.394Z,67.71
2023-05-14T08:28:45.372Z,66.00
2023-05-14T08:29:45.392Z,67.61
2023-05-14T08:30:45.434Z,67.00
2023-05-14T08:31:45.355Z,68.88
2023-05-14T08:32:45.393Z,69.89
2023-05-14T08:33:45.326Z,68.25
2023-05-14T08:34:45.370Z,68.85
2023-05-14T08:35:45.317Z,66.71
2023-05-14T08:36:45.289Z,65.20
2023-05-14T08:37:45.309Z,65.94
2023-05-14T08:38:45.301Z,65.30
2023-05-14T08:39:45.291Z,66.03
2023-05-14T08:40:45.246Z,64.43
2023-05-14T08:41:45.240Z,66.74
2023-05-14T08:42:45.335Z,66.20
2023-05-14T08:43:45.262Z,67.91
2023-05-14T08:44:45.239Z,67.28
2023-05-14T08:45:45.219Z,64.70
2023-05-14T08:46:45.212Z,67.58
2023-05-14T08:47:45.216Z,67.14
2023-05-14T08:48:45.213Z,66.85
2023-05-14T08:49:45.174Z,67.82
2023-05-14T08:50:45.179Z,65.61
2023-05-14T08:51:45.138Z,66.91
2023-05-14T08:52:45.151Z,67.92
2023-05-14T08:53:45.142Z,67.08
2023-05-14T08:54:45.122Z,66.38
2023-05-14T08:55:45.094Z,67.08
2023-05-14T08:56:45.090Z,65.51
2023-05-14T08:57:45.088Z,63.73
2023-05-14T08:58:45.051Z,66.55
2023-05-14T08:59:45.111Z,63.93
2023-05-14T09:00:45.024Z,64.37
2023-05-14T09:01:45.120Z,64.87
2023-05-14T09:02:45.089Z,65.24
2023-05-14T09:03:45.043Z,65.71
2023-05-14T09:04:44.998Z,66.91
2023-05-14T09:05:44.985Z,66.78
2023-05-14T09:06:45.028Z,65.85
2023-05-14T09:07:45.023Z,63.75
2023-05-14T09:08:44.993Z,64.31
2023-05-14T09:09:44.974Z,59.58
2023-05-14T09:10:44.988Z,63.35
2023-05-14T09:11:44.981Z,61.29
2023-05-14T09:12:44.963Z,59.53
2023-05-14T09:13:44.918Z,59.25
2023-05-14T09:14:44.893Z,59.89
2023-05-14T09:15:44.895Z,57.94
2023-05-14T09:16:45.003Z,53.83
2023-05-14T09:17:44.922Z,52.86
2023-05-14T09:18:44.909Z,55.60
2023-05-14T09:19:44.836Z,53.86
2023-05-14T09:20:44.827Z,55.62
2023-05-14T09:21:44.859Z,52.76
2023-05-14T09:22:44.813Z,55.38
2023-05-14T09:23:44.808Z,57.42
2023-05-14T09:24:44.836Z,53.09
2023-05-14T09:25:44.799Z,54.71
2023-05-14T09:26:44.809Z,52.67
2023-05-14T09:27:44.758Z,52.26
2023-05-14T09:28:44.761Z,49.34
2023-05-14T09:29:44.790Z,50.43
2023-05-14T09:30:44.751Z,51.65
2023-05-14T09:31:44.770Z,52.36
2023-05-14T09:32:44.768Z,50.88
2023-05-14T09:33:44.693Z,48.95
2023-05-14T09:34:44.686Z,48.26
2023-05-14T09:35:44.688Z,50.43
2023-05-14T09:36:44.676Z,54.04
2023-05-14T09:37:44.648Z,57.17
2023-05-14T09:38:44.720Z,57.87
2023-05-14T09:39:44.656Z,57.37
2023-05-14T09:40:44.991Z,55.06
2023-05-14T09:41:45.075Z,53.11
2023-05-14T09:42:44.788Z,55.02
2023-05-14T09:43:44.904Z,58.31
2023-05-14T09:44:44.797Z,56.08
2023-05-14T09:45:44.934Z,53.91
2023-05-14T09:46:45.721Z,52.86
2023-05-14T09:47:45.021Z,52.31
2023-05-14T09:48:44.600Z,49.49
2023-05-14T09:49:44.550Z,51.22
2023-05-14T09:50:44.510Z,55.32
2023-05-14T09:51:44.510Z,51.97
2023-05-14T09:52:44.528Z,55.58
2023-05-14T09:53:44.490Z,58.94
2023-05-14T09:54:44.509Z,59.09
2023-05-14T09:55:44.468Z,60.15
2023-05-14T09:56:44.460Z,61.25
2023-05-14T09:57:44.467Z,59.61
2023-05-14T09:58:44.437Z,60.79
2023-05-14T09:59:44.417Z,54.94
2023-05-14T10:00:44.443Z,54.95
2023-05-14T10:01:44.783Z,55.27
2023-05-14T10:02:44.422Z,49.22
2023-05-14T10:03:44.441Z,51.37
2023-05-14T10:04:44.465Z,50.98
2023-05-14T10:05:44.416Z,51.67
2023-05-14T10:06:44.392Z,51.70
2023-05-14T10:07:44.370Z,53.04
2023-05-14T10:08:44.348Z,55.48
2023-05-14T10:09:44.315Z,55.62
2023-05-14T10:10:44.299Z,50.45
2023-05-14T10:11:44.444Z,52.25
2023-05-14T10:12:44.272Z,55.83
2023-05-14T10:13:44.317Z,53.74
2023-05-14T10:14:44.280Z,54.03
2023-05-14T10:15:44.282Z,55.71
2023-05-14T10:16:44.274Z,55.67
2023-05-14T10:17:44.349Z,48.30
2023-05-14T10:18:44.369Z,48.82
2023-05-14T10:19:44.224Z,47.06
2023-05-14T10:20:44.251Z,49.04
2023-05-14T10:21:44.205Z,50.53
2023-05-14T10:22:44.181Z,48.90
2023-05-14T10:23:44.176Z,47.73
2023-05-14T10:24:44.165Z,49.22
2023-05-14T10:25:44.170Z,50.16
2023-05-14T10:26:44.204Z,51.07
2023-05-14T10:27:44.200Z,50.03
2023-05-14T10:28:44.136Z,48.77
2023-05-14T10:29:44.117Z,47.32
2023-05-14T10:30:44.138Z,51.10
2023-05-14T10:31:44.300Z,51.77
2023-05-14T10:32:44.405Z,51.77
2023-05-14T10:33:44.070Z,48.84
2023-05-14T10:34:44.298Z,47.58
2023-05-14T10:35:44.116Z,48.21
2023-05-14T10:36:44.066Z,44.50
2023-05-14T10:37:44.051Z,44.75
2023-05-14T10:38:44.053Z,43.02
2023-05-14T10:39:44.076Z,43.08
2023-05-14T10:40:44.023Z,51.03
2023-05-14T10:41:44.021Z,46.83
2023-05-14T10:42:44.018Z,54.55
2023-05-14T10:43:43.982Z,51.95
2023-05-14T10:44:43.989Z,50.87
2023-05-14T10:45:44.021Z,48.49
2023-05-14T10:46:43.974Z,49.21
2023-05-14T10:47:43.981Z,47.45
2023-05-14T10:48:43.921Z,46.19
2023-05-14T10:49:44.138Z,45.42
2023-05-14T10:50:43.969Z,43.99
2023-05-14T10:51:44.021Z,46.89
2023-05-14T10:52:43.929Z,43.31
2023-05-14T10:53:43.868Z,44.38
2023-05-14T10:54:43.912Z,41.14
2023-05-14T10:55:43.881Z,44.75
2023-05-14T10:56:43.846Z,47.89
2023-05-14T10:57:43.872Z,49.18
2023-05-14T10:58:43.833Z,51.22
2023-05-14T10:59:43.836Z,52.87
2023-05-14T11:00:43.794Z,50.52
2023-05-14T11:01:43.807Z,52.17
2023-05-14T11:02:43.841Z,52.19
2023-05-14T11:03:43.857Z,47.41
2023-05-14T11:04:43.795Z,50.56
2023-05-14T11:05:43.733Z,45.34
2023-05-14T11:06:43.768Z,43.18
2023-05-14T11:07:43.732Z,41.87
2023-05-14T11:08:43.738Z,44.29
2023-05-14T11:09:43.755Z,41.38
2023-05-14T11:10:43.683Z,42.99
2023-05-14T11:11:43.659Z,40.13
2023-05-14T11:12:43.689Z,39.52
2023-05-14T11:13:43.636Z,41.49
2023-05-14T11:14:43.637Z,41.33
2023-05-14T11:15:43.609Z,40.31
2023-05-14T11:16:43.693Z,41.04
2023-05-14T11:17:43.674Z,39.52
2023-05-14T11:18:43.635Z,41.02
2023-05-14T11:19:43.584Z,40.11
2023-05-14T11:20:43.598Z,38.71
2023-05-14T11:21:43.629Z,36.05
2023-05-14T11:22:43.561Z,38.70
2023-05-14T11:23:43.594Z,38.54
2023-05-14T11:24:43.530Z,40.03
2023-05-14T11:25:44.495Z,37.74
2023-05-14T11:26:43.651Z,42.09
2023-05-14T11:27:43.494Z,39.75
2023-05-14T11:28:43.499Z,43.70
2023-05-14T11:29:43.507Z,41.49
2023-05-14T11:30:43.462Z,38.88
2023-05-14T11:31:43.461Z,41.08
2023-05-14T11:32:43.508Z,44.06
2023-05-14T11:33:43.497Z,39.08
2023-05-14T11:34:43.419Z,44.56
2023-05-14T11:35:43.401Z,41.24
2023-05-14T11:36:43.548Z,38.84
2023-05-14T11:37:43.416Z,39.62
2023-05-14T11:38:43.401Z,38.65
2023-05-14T11:39:43.382Z,42.22
2023-05-14T11:40:43.357Z,39.97
2023-05-14T11:41:43.353Z,46.16
2023-05-14T11:42:43.380Z,41.95
2023-05-14T11:43:43.330Z,39.34
2023-05-14T11:44:43.318Z,41.46
2023-05-14T11:45:43.332Z,37.29
2023-05-14T11:46:43.361Z,38.37
2023-05-14T11:47:43.325Z,43.70
2023-05-14T11:48:43.290Z,44.37
2023-05-14T11:49:43.278Z,44.17
2023-05-14T11:50:43.258Z,42.57
2023-05-14T11:51:43.244Z,46.01
2023-05-14T11:52:43.236Z,46.20
2023-05-14T11:53:43.239Z,49.87
2023-05-14T11:54:43.242Z,49.82
2023-05-14T11:55:43.193Z,52.64
2023-05-14T11:56:43.204Z,52.55
2023-05-14T11:57:43.181Z,49.01
2023-05-14T11:58:43.187Z,47.99
2023-05-14T11:59:43.172Z,44.15
2023-05-14T12:00:43.153Z,43.48
2023-05-14T12:01:43.148Z,47.33
2023-05-14T12:02:43.188Z,44.59
2023-05-14T12:03:43.223Z,43.57
2023-05-14T12:04:43.150Z,42.84
2023-05-14T12:05:43.088Z,44.40
2023-05-14T12:06:43.085Z,40.26
2023-05-14T12:07:43.066Z,40.25
2023-05-14T12:08:43.110Z,41.95
2023-05-14T12:09:45.169Z,40.37
2023-05-14T12:10:43.073Z,43.35
2023-05-14T12:11:43.021Z,38.51
2023-05-14T12:12:43.019Z,43.40
2023-05-14T12:13:43.005Z,45.19
2023-05-14T12:14:42.998Z,42.66
2023-05-14T12:15:43.049Z,42.42
2023-05-14T12:16:43.153Z,40.70
2023-05-14T12:17:43.023Z,39.52
2023-05-14T12:18:43.052Z,36.36
2023-05-14T12:19:42.953Z,38.10
2023-05-14T12:20:42.970Z,41.51
2023-05-14T12:21:42.935Z,39.40
2023-05-14T12:22:42.928Z,38.13
2023-05-14T12:23:42.902Z,40.13
2023-05-14T12:24:42.894Z,39.20
2023-05-14T12:25:42.874Z,41.95
2023-05-14T12:26:42.944Z,44.37
2023-05-14T12:27:42.869Z,42.11
2023-05-14T12:28:43.813Z,44.57
2023-05-14T12:29:42.853Z,43.44
2023-05-14T12:30:42.844Z,41.91
2023-05-14T12:31:42.875Z,45.01
2023-05-14T12:32:42.877Z,42.52
2023-05-14T12:33:42.797Z,43.53
2023-05-14T12:34:42.817Z,40.19
2023-05-14T12:35:42.787Z,42.36
2023-05-14T12:36:42.771Z,40.55
2023-05-14T12:37:42.760Z,47.31
2023-05-14T12:38:42.803Z,44.21
2023-05-14T12:39:42.748Z,43.44
2023-05-14T12:40:42.728Z,41.14
2023-05-14T12:41:42.719Z,43.76
2023-05-14T12:42:42.707Z,43.32
2023-05-14T12:43:42.821Z,44.49
2023-05-14T12:44:42.771Z,40.36
2023-05-14T12:45:42.674Z,44.87
2023-05-14T12:46:42.709Z,45.37
2023-05-14T12:47:42.713Z,46.76
2023-05-14T12:48:42.665Z,43.82
2023-05-14T12:49:42.651Z,45.23
2023-05-14T12:50:43.838Z,45.75
2023-05-14T12:51:42.608Z,46.45
2023-05-14T12:52:42.639Z,46.59
2023-05-14T12:53:42.602Z,46.49
2023-05-14T12:54:42.988Z,45.72
2023-05-14T12:55:42.568Z,47.93
2023-05-14T12:56:42.566Z,46.06
2023-05-14T12:57:42.558Z,48.05
2023-05-14T12:58:42.542Z,48.05
2023-05-14T12:59:42.542Z,51.15
2023-05-14T13:00:42.534Z,47.24
2023-05-14T13:01:42.523Z,52.39
2023-05-14T13:02:43.655Z,54.16
2023-05-14T13:03:42.537Z,45.57
2023-05-14T13:04:42.545Z,46.47
2023-05-14T13:05:44.807Z,45.60
2023-05-14T13:06:44.720Z,45.18
2023-05-14T13:07:50.865Z,43.38
2023-05-14T13:08:46.014Z,43.63
2023-05-14T13:09:59.854Z,45.32
2023-05-14T13:10:42.407Z,47.21
2023-05-14T13:11:42.433Z,49.28
2023-05-14T13:12:42.404Z,45.62
2023-05-14T13:13:42.409Z,48.41
2023-05-14T13:14:42.382Z,48.53
2023-05-14T13:15:42.356Z,49.55
2023-05-14T13:16:42.388Z,49.60
2023-05-14T13:17:42.439Z,50.52
2023-05-14T13:18:42.370Z,51.75
2023-05-14T13:19:42.318Z,51.87
2023-05-14T13:20:43.311Z,53.59
2023-05-14T13:21:42.318Z,55.62
2023-05-14T13:22:42.299Z,54.64
2023-05-14T13:23:42.298Z,54.44
2023-05-14T13:24:42.280Z,54.35
2023-05-14T13:25:42.314Z,55.87
2023-05-14T13:26:42.263Z,57.37
2023-05-14T13:27:42.235Z,55.47
2023-05-14T13:28:42.224Z,55.27
2023-05-14T13:29:42.223Z,57.00
2023-05-14T13:30:42.259Z,57.07
2023-05-14T13:31:42.191Z,57.20
2023-05-14T13:32:42.379Z,58.20
2023-05-14T13:33:42.187Z,60.81
2023-05-14T13:34:42.194Z,59.13
2023-05-14T13:35:42.156Z,61.84
2023-05-14T13:36:42.152Z,61.24
2023-05-14T13:37:42.152Z,61.44
2023-05-14T13:38:42.132Z,60.86
2023-05-14T13:39:42.142Z,61.87
2023-05-14T13:40:42.104Z,60.36
2023-05-14T13:41:42.097Z,60.89
2023-05-14T13:42:42.103Z,58.29
2023-05-14T13:43:42.066Z,59.49
2023-05-14T13:44:42.090Z,57.41
2023-05-14T13:45:42.045Z,58.09
2023-05-14T13:46:42.091Z,63.20
2023-05-14T13:47:42.033Z,59.96
2023-05-14T13:48:42.043Z,57.56
2023-05-14T13:49:42.019Z,58.26
2023-05-14T13:50:42.037Z,57.76
2023-05-14T13:51:41.982Z,59.53
2023-05-14T13:52:41.967Z,55.73
2023-05-14T13:53:42.031Z,53.25
2023-05-14T13:54:41.957Z,53.34
2023-05-14T13:55:42.009Z,54.85
2023-05-14T13:56:41.932Z,53.64
2023-05-14T13:57:41.925Z,54.17
2023-05-14T13:58:41.938Z,53.97
2023-05-14T13:59:41.909Z,52.67
2023-05-14T14:00:41.934Z,52.07
2023-05-14T14:01:41.895Z,52.77
2023-05-14T14:02:41.913Z,53.64
2023-05-14T14:03:41.855Z,53.05
2023-05-14T14:04:41.900Z,51.34
2023-05-14T14:05:41.960Z,53.64
2023-05-14T14:06:41.834Z,54.45
2023-05-14T14:07:41.856Z,47.23
2023-05-14T14:08:41.831Z,49.76
2023-05-14T14:09:41.796Z,50.66
2023-05-14T14:10:41.811Z,51.14
2023-05-14T14:11:41.786Z,55.82
2023-05-14T14:12:41.784Z,51.51
2023-05-14T14:13:42.605Z,53.80
2023-05-14T14:14:41.743Z,52.29
2023-05-14T14:15:41.740Z,49.61
2023-05-14T14:16:41.854Z,50.01
2023-05-14T14:17:41.801Z,52.62
2023-05-14T14:18:41.718Z,53.89
2023-05-14T14:19:41.690Z,51.19
2023-05-14T14:20:41.686Z,49.31
2023-05-14T14:21:41.712Z,50.59
2023-05-14T14:22:41.658Z,50.19
2023-05-14T14:23:41.652Z,50.69
2023-05-14T14:24:41.648Z,49.66
2023-05-14T14:25:41.647Z,46.76
2023-05-14T14:26:41.687Z,49.37
2023-05-14T14:27:41.602Z,51.07
2023-05-14T14:28:41.617Z,49.37
2023-05-14T14:29:41.583Z,49.37
2023-05-14T14:30:41.590Z,52.07
2023-05-14T14:31:41.617Z,50.76
2023-05-14T14:32:41.558Z,50.94
2023-05-14T14:33:41.539Z,49.34
2023-05-14T14:34:41.535Z,53.05
2023-05-14T14:35:41.590Z,50.94
2023-05-14T14:36:41.504Z,51.92
2023-05-14T14:37:41.494Z,50.62
2023-05-14T14:38:41.540Z,50.26
2023-05-14T14:39:41.524Z,54.14
2023-05-14T14:40:41.589Z,52.84
2023-05-14T14:41:41.465Z,56.62
2023-05-14T14:42:41.455Z,52.24
2023-05-14T14:43:41.434Z,50.94
2023-05-14T14:44:41.435Z,51.44
2023-05-14T14:45:41.465Z,53.14
2023-05-14T14:47:03.021Z,56.22
2023-05-14T14:47:41.484Z,51.92
2023-05-14T14:48:41.387Z,52.12
2023-05-14T14:49:41.404Z,52.44
2023-05-14T14:50:41.365Z,53.44
2023-05-14T14:51:41.365Z,51.94
2023-05-14T14:52:41.630Z,57.05
2023-05-14T14:53:41.320Z,57.65
2023-05-14T14:54:41.351Z,58.45
2023-05-14T14:55:41.349Z,56.02
2023-05-14T14:56:41.299Z,53.34
2023-05-14T14:57:41.284Z,53.85
2023-05-14T14:58:41.293Z,51.14
2023-05-14T14:59:41.300Z,52.14
2023-05-14T15:00:41.301Z,52.94
2023-05-14T15:01:41.286Z,53.74
2023-05-14T15:02:41.280Z,53.34
2023-05-14T15:03:41.381Z,53.87
2023-05-14T15:04:41.233Z,54.37
2023-05-14T15:05:41.210Z,52.34
2023-05-14T15:06:41.262Z,51.74
2023-05-14T15:07:41.186Z,52.84
2023-05-14T15:08:41.210Z,54.37
2023-05-14T15:09:41.181Z,54.97
2023-05-14T15:10:41.164Z,54.27
2023-05-14T15:11:41.146Z,53.37
2023-05-14T15:12:41.132Z,51.87
2023-05-14T15:13:41.162Z,53.37
2023-05-14T15:14:41.125Z,55.07
2023-05-14T15:15:41.140Z,53.00
2023-05-14T15:16:41.113Z,54.37
2023-05-14T15:17:41.157Z,54.07
2023-05-14T15:18:41.120Z,54.17
2023-05-14T15:19:41.079Z,54.30
2023-05-14T15:20:41.069Z,56.98
2023-05-14T15:21:41.054Z,55.27
2023-05-14T15:22:41.062Z,54.47
2023-05-14T15:23:41.115Z,54.20
2023-05-14T15:24:41.045Z,53.52
2023-05-14T15:25:41.004Z,55.32
2023-05-14T15:26:41.010Z,54.39
2023-05-14T15:27:40.995Z,56.00
2023-05-14T15:28:41.062Z,54.90
2023-05-14T15:29:40.966Z,55.30
2023-05-14T15:30:40.968Z,55.10
2023-05-14T15:31:40.985Z,55.70
2023-05-14T15:32:40.970Z,55.50
2023-05-14T15:33:40.914Z,55.40
2023-05-14T15:34:40.912Z,53.42
2023-05-14T15:35:40.902Z,58.53
2023-05-14T15:36:40.930Z,57.40
2023-05-14T15:37:40.928Z,57.70
2023-05-14T15:38:40.858Z,58.20
2023-05-14T15:39:40.889Z,56.50
2023-05-14T15:40:40.857Z,54.50
2023-05-14T15:41:40.897Z,54.72
2023-05-14T15:42:40.848Z,56.73
2023-05-14T15:43:40.824Z,58.61
2023-05-14T15:44:40.833Z,54.52
2023-05-14T15:45:40.839Z,57.00
2023-05-14T15:46:40.855Z,56.50
2023-05-14T15:47:40.924Z,54.50
2023-05-14T15:48:40.758Z,55.40
2023-05-14T15:49:40.817Z,57.17
2023-05-14T15:50:40.805Z,55.67
2023-05-14T15:51:40.795Z,52.57
2023-05-14T15:52:40.710Z,55.77
2023-05-14T15:53:40.700Z,55.47
2023-05-14T15:54:40.695Z,56.95
2023-05-14T15:55:40.678Z,54.07
2023-05-14T15:56:40.683Z,53.47
2023-05-14T15:57:40.673Z,54.27
2023-05-14T15:58:40.647Z,54.87
2023-05-14T15:59:40.634Z,52.77
2023-05-14T16:00:40.632Z,52.97
2023-05-14T16:01:40.674Z,55.17
2023-05-14T16:02:40.702Z,54.94
2023-05-14T16:03:40.713Z,56.15
2023-05-14T16:04:40.614Z,54.77
2023-05-14T16:05:40.603Z,54.37
2023-05-14T16:06:40.565Z,55.50
2023-05-14T16:07:40.551Z,55.20
2023-05-14T16:08:40.539Z,56.60
2023-05-14T16:09:40.600Z,54.80
2023-05-14T16:10:40.524Z,54.93
2023-05-14T16:11:40.508Z,55.75
2023-05-14T16:12:40.504Z,57.15
2023-05-14T16:13:40.483Z,57.66
2023-05-14T16:14:41.853Z,56.65
2023-05-14T16:15:40.465Z,57.56
2023-05-14T16:16:40.485Z,56.85
2023-05-14T16:17:40.460Z,56.96
2023-05-14T16:18:40.493Z,58.86
2023-05-14T16:19:40.487Z,59.13
2023-05-14T16:20:40.415Z,61.34
2023-05-14T16:21:40.409Z,57.63
2023-05-14T16:22:40.402Z,58.63
2023-05-14T16:23:40.441Z,58.16
2023-05-14T16:24:40.389Z,57.89
2023-05-14T16:25:40.362Z,59.19
2023-05-14T16:26:40.331Z,60.39
2023-05-14T16:27:40.341Z,59.59
2023-05-14T16:28:40.390Z,61.40
2023-05-14T16:29:40.312Z,60.29
2023-05-14T16:30:40.300Z,61.52
2023-05-14T16:31:40.317Z,59.72
2023-05-14T16:32:40.284Z,60.22
2023-05-14T16:33:40.321Z,61.13
2023-05-14T16:34:40.261Z,60.65
2023-05-14T16:35:40.252Z,60.35
2023-05-14T16:36:40.244Z,59.75
2023-05-14T16:37:40.282Z,59.38
2023-05-14T16:38:48.326Z,59.38
2023-05-14T16:39:40.202Z,59.70
2023-05-14T16:40:40.196Z,60.24
2023-05-14T16:41:40.192Z,60.33
2023-05-14T16:42:40.184Z,61.65
2023-05-14T16:43:40.180Z,61.54
2023-05-14T16:44:40.144Z,61.04
2023-05-14T16:45:40.188Z,61.94
2023-05-14T16:46:40.129Z,62.24
2023-05-14T16:47:40.222Z,61.44
2023-05-14T16:48:40.101Z,61.65
2023-05-14T16:49:40.097Z,62.27
2023-05-14T16:50:40.080Z,61.17
2023-05-14T16:51:40.082Z,62.88
2023-05-14T16:52:40.072Z,62.27